Millville Municipal Airport
KMIV : now visible

Airfield :











YOU CAN JOIN US ON...

 
LOGIN :

Register | Disclaimer

   EN    FR    IT 

 









Legend :    VFR   Marginal VFR   IFR   Intensive IFR   Very Intensive IFR
Visi :
Ceiling :
>= 8 km
>= 3000ft
5 to 8 km
1000 to 3000 ft
1500m to 5 km
500 to 1000 ft
800 to 1500m
200 to 500 ft
< 800m
< 200 ft
Symbols :   Thunderstorms  Fog  Heavy snow  Heavy precipitations  Wind > 20 kt






- Airport Elevation : 85 ft


KMIV - Millville Municipal

CURRENT METAR :
  • 280954Z AUTO 27010KT 10SM CLR 12/07 A2956 RMK AO2 SLP008 T01170067

EXPIRED METARs :
  • 280854Z AUTO 28003KT 10SM CLR 09/07 A2955 RMK AO2 SLP005 T00890067 52006
  • 280754Z AUTO 22005KT 10SM CLR 11/08 A2955 RMK AO2 SLP004 T01060078

TAF KMIV
Valid from the 28 at 06:00 until the 29 at 06:00 UTC


280521Z 2806/2906 27006KT P6SM FEW040
FM281400 30012G22KT P6SM SCT040
FM282200 32006KT P6SM FEW040
KZDC FIR / North America



MET'MAP, your aeronautical weather chart ! - Copyright ORBIFLY December 2007 - Disclaimer

ORBIFLY MET'MAP TEAM :

Programming & Development : Alexandra Zaïnal
Original concept : Baudouin d'Aumeries
Technical & hardware support : Manuel Goepfert
Assistance : Marc-Olivier Méhu




SOURCES & CREDITS :

   NOAA       Earth
Advisory